sensor_id;sensor_type;location;lat;lon;timestamp;temperature;humidity
76897;SHT30;65856;52.178;21.176;2024-02-21T00:01:17;6.35;78.71
76897;SHT30;65856;52.178;21.176;2024-02-21T00:03:43;6.34;78.72
76897;SHT30;65856;52.178;21.176;2024-02-21T00:06:08;6.32;78.74
76897;SHT30;65856;52.178;21.176;2024-02-21T00:08:34;6.30;78.78
76897;SHT30;65856;52.178;21.176;2024-02-21T00:10:59;6.28;78.84
76897;SHT30;65856;52.178;21.176;2024-02-21T00:13:24;6.29;78.90
76897;SHT30;65856;52.178;21.176;2024-02-21T00:15:50;6.31;78.97
76897;SHT30;65856;52.178;21.176;2024-02-21T00:18:15;6.30;79.00
76897;SHT30;65856;52.178;21.176;2024-02-21T00:20:41;6.28;79.04
76897;SHT30;65856;52.178;21.176;2024-02-21T00:23:06;6.28;79.13
76897;SHT30;65856;52.178;21.176;2024-02-21T00:25:31;6.25;79.20
76897;SHT30;65856;52.178;21.176;2024-02-21T00:27:57;6.27;79.29
76897;SHT30;65856;52.178;21.176;2024-02-21T00:30:22;6.28;79.30
76897;SHT30;65856;52.178;21.176;2024-02-21T00:32:47;6.30;79.31
76897;SHT30;65856;52.178;21.176;2024-02-21T00:35:13;6.32;79.32
76897;SHT30;65856;52.178;21.176;2024-02-21T00:37:39;6.31;79.40
76897;SHT30;65856;52.178;21.176;2024-02-21T00:40:05;6.31;79.41
76897;SHT30;65856;52.178;21.176;2024-02-21T00:42:31;6.33;79.49
76897;SHT30;65856;52.178;21.176;2024-02-21T00:44:57;6.34;79.57
76897;SHT30;65856;52.178;21.176;2024-02-21T00:47:22;6.34;79.58
76897;SHT30;65856;52.178;21.176;2024-02-21T00:49:47;6.37;79.60
76897;SHT30;65856;52.178;21.176;2024-02-21T00:52:13;6.37;79.59
76897;SHT30;65856;52.178;21.176;2024-02-21T00:54:38;6.37;79.70
76897;SHT30;65856;52.178;21.176;2024-02-21T00:57:04;6.37;79.70
76897;SHT30;65856;52.178;21.176;2024-02-21T00:59:29;6.38;79.70
76897;SHT30;65856;52.178;21.176;2024-02-21T01:01:55;6.40;79.70
76897;SHT30;65856;52.178;21.176;2024-02-21T01:04:20;6.40;79.71
76897;SHT30;65856;52.178;21.176;2024-02-21T01:06:46;6.40;79.80
76897;SHT30;65856;52.178;21.176;2024-02-21T01:09:11;6.41;79.76
76897;SHT30;65856;52.178;21.176;2024-02-21T01:11:37;6.42;79.73
76897;SHT30;65856;52.178;21.176;2024-02-21T01:14:02;6.41;79.74
76897;SHT30;65856;52.178;21.176;2024-02-21T01:16:28;6.40;79.80
76897;SHT30;65856;52.178;21.176;2024-02-21T01:18:53;6.40;79.81
76897;SHT30;65856;52.178;21.176;2024-02-21T01:21:18;6.40;79.88
76897;SHT30;65856;52.178;21.176;2024-02-21T01:23:44;6.40;79.89
76897;SHT30;65856;52.178;21.176;2024-02-21T01:26:09;6.37;79.91
76897;SHT30;65856;52.178;21.176;2024-02-21T01:28:38;6.39;79.97
76897;SHT30;65856;52.178;21.176;2024-02-21T01:31:03;6.42;80.03
76897;SHT30;65856;52.178;21.176;2024-02-21T01:33:29;6.43;80.11
76897;SHT30;65856;52.178;21.176;2024-02-21T01:35:59;6.41;80.19
76897;SHT30;65856;52.178;21.176;2024-02-21T01:38:29;6.40;80.29
76897;SHT30;65856;52.178;21.176;2024-02-21T01:40:55;6.41;80.33
76897;SHT30;65856;52.178;21.176;2024-02-21T01:43:21;6.44;80.43
76897;SHT30;65856;52.178;21.176;2024-02-21T01:45:48;6.42;80.45
76897;SHT30;65856;52.178;21.176;2024-02-21T01:48:16;6.43;80.52
76897;SHT30;65856;52.178;21.176;2024-02-21T01:50:44;6.46;80.59
76897;SHT30;65856;52.178;21.176;2024-02-21T01:53:14;6.47;80.60
76897;SHT30;65856;52.178;21.176;2024-02-21T01:55:45;6.47;80.66
76897;SHT30;65856;52.178;21.176;2024-02-21T01:58:11;6.48;80.75
76897;SHT30;65856;52.178;21.176;2024-02-21T02:00:43;6.49;80.82
76897;SHT30;65856;52.178;21.176;2024-02-21T02:03:10;6.50;80.89
76897;SHT30;65856;52.178;21.176;2024-02-21T02:05:44;6.50;80.90
76897;SHT30;65856;52.178;21.176;2024-02-21T02:08:14;6.50;81.00
76897;SHT30;65856;52.178;21.176;2024-02-21T02:10:41;6.51;81.09
76897;SHT30;65856;52.178;21.176;2024-02-21T02:13:07;6.51;81.12
76897;SHT30;65856;52.178;21.176;2024-02-21T02:15:39;6.52;81.25
76897;SHT30;65856;52.178;21.176;2024-02-21T02:18:05;6.51;81.43
76897;SHT30;65856;52.178;21.176;2024-02-21T02:20:30;6.51;81.55
76897;SHT30;65856;52.178;21.176;2024-02-21T02:22:56;6.50;81.66
76897;SHT30;65856;52.178;21.176;2024-02-21T02:25:28;6.50;81.75
76897;SHT30;65856;52.178;21.176;2024-02-21T02:27:53;6.50;81.82
76897;SHT30;65856;52.178;21.176;2024-02-21T02:30:19;6.52;81.90
76897;SHT30;65856;52.178;21.176;2024-02-21T02:32:45;6.53;81.94
76897;SHT30;65856;52.178;21.176;2024-02-21T02:35:13;6.53;82.01
76897;SHT30;65856;52.178;21.176;2024-02-21T02:37:39;6.55;82.10
76897;SHT30;65856;52.178;21.176;2024-02-21T02:40:07;6.57;82.11
76897;SHT30;65856;52.178;21.176;2024-02-21T02:42:33;6.60;82.10
76897;SHT30;65856;52.178;21.176;2024-02-21T02:44:58;6.60;82.13
76897;SHT30;65856;52.178;21.176;2024-02-21T02:47:24;6.63;82.12
76897;SHT30;65856;52.178;21.176;2024-02-21T02:49:49;6.64;82.11
76897;SHT30;65856;52.178;21.176;2024-02-21T02:52:16;6.65;82.10
76897;SHT30;65856;52.178;21.176;2024-02-21T02:54:43;6.67;82.10
76897;SHT30;65856;52.178;21.176;2024-02-21T02:57:09;6.68;82.10
76897;SHT30;65856;52.178;21.176;2024-02-21T02:59:34;6.69;82.14
76897;SHT30;65856;52.178;21.176;2024-02-21T03:02:00;6.69;82.17
76897;SHT30;65856;52.178;21.176;2024-02-21T03:04:26;6.69;82.19
76897;SHT30;65856;52.178;21.176;2024-02-21T03:06:51;6.70;82.20
76897;SHT30;65856;52.178;21.176;2024-02-21T03:09:16;6.68;82.20
76897;SHT30;65856;52.178;21.176;2024-02-21T03:11:42;6.68;82.26
76897;SHT30;65856;52.178;21.176;2024-02-21T03:14:09;6.68;82.30
76897;SHT30;65856;52.178;21.176;2024-02-21T03:16:35;6.68;82.30
76897;SHT30;65856;52.178;21.176;2024-02-21T03:19:01;6.68;82.30
76897;SHT30;65856;52.178;21.176;2024-02-21T03:21:26;6.66;82.22
76897;SHT30;65856;52.178;21.176;2024-02-21T03:23:51;6.64;82.20
76897;SHT30;65856;52.178;21.176;2024-02-21T03:26:17;6.65;82.20
76897;SHT30;65856;52.178;21.176;2024-02-21T03:28:43;6.67;82.20
76897;SHT30;65856;52.178;21.176;2024-02-21T03:31:12;6.68;82.20
76897;SHT30;65856;52.178;21.176;2024-02-21T03:33:39;6.68;82.20
76897;SHT30;65856;52.178;21.176;2024-02-21T03:36:12;6.67;82.20
76897;SHT30;65856;52.178;21.176;2024-02-21T03:38:39;6.66;82.20
76897;SHT30;65856;52.178;21.176;2024-02-21T03:41:05;6.66;82.19
76897;SHT30;65856;52.178;21.176;2024-02-21T03:43:30;6.65;82.20
76897;SHT30;65856;52.178;21.176;2024-02-21T03:45:55;6.64;82.20
76897;SHT30;65856;52.178;21.176;2024-02-21T03:48:21;6.64;82.17
76897;SHT30;65856;52.178;21.176;2024-02-21T03:50:46;6.65;82.11
76897;SHT30;65856;52.178;21.176;2024-02-21T03:53:11;6.64;81.98
76897;SHT30;65856;52.178;21.176;2024-02-21T03:55:37;6.62;81.91
76897;SHT30;65856;52.178;21.176;2024-02-21T03:58:03;6.59;81.79
76897;SHT30;65856;52.178;21.176;2024-02-21T04:00:28;6.55;81.70
76897;SHT30;65856;52.178;21.176;2024-02-21T04:02:54;6.51;81.62
76897;SHT30;65856;52.178;21.176;2024-02-21T04:05:20;6.46;81.28
76897;SHT30;65856;52.178;21.176;2024-02-21T04:07:46;6.33;81.23
76897;SHT30;65856;52.178;21.176;2024-02-21T04:10:12;6.27;81.30
76897;SHT30;65856;52.178;21.176;2024-02-21T04:12:37;6.19;80.98
76897;SHT30;65856;52.178;21.176;2024-02-21T04:15:03;6.13;80.89
76897;SHT30;65856;52.178;21.176;2024-02-21T04:17:29;6.07;80.87
76897;SHT30;65856;52.178;21.176;2024-02-21T04:20:00;6.01;80.83
76897;SHT30;65856;52.178;21.176;2024-02-21T04:22:35;5.95;80.81
76897;SHT30;65856;52.178;21.176;2024-02-21T04:25:01;5.90;80.67
76897;SHT30;65856;52.178;21.176;2024-02-21T04:27:26;5.84;80.49
76897;SHT30;65856;52.178;21.176;2024-02-21T04:29:52;5.78;80.29
76897;SHT30;65856;52.178;21.176;2024-02-21T04:32:18;5.73;80.23
76897;SHT30;65856;52.178;21.176;2024-02-21T04:34:44;5.70;80.42
76897;SHT30;65856;52.178;21.176;2024-02-21T04:37:09;5.70;80.53
76897;SHT30;65856;52.178;21.176;2024-02-21T04:39:35;5.67;80.51
76897;SHT30;65856;52.178;21.176;2024-02-21T04:42:00;5.66;80.64
76897;SHT30;65856;52.178;21.176;2024-02-21T04:44:26;5.63;80.70
76897;SHT30;65856;52.178;21.176;2024-02-21T04:46:51;5.64;80.82
76897;SHT30;65856;52.178;21.176;2024-02-21T04:49:17;5.63;80.90
76897;SHT30;65856;52.178;21.176;2024-02-21T04:51:42;5.64;80.98
76897;SHT30;65856;52.178;21.176;2024-02-21T04:54:08;5.66;81.02
76897;SHT30;65856;52.178;21.176;2024-02-21T04:56:34;5.63;81.21
76897;SHT30;65856;52.178;21.176;2024-02-21T04:58:59;5.64;81.34
76897;SHT30;65856;52.178;21.176;2024-02-21T05:01:24;5.64;81.48
76897;SHT30;65856;52.178;21.176;2024-02-21T05:03:50;5.64;81.65
76897;SHT30;65856;52.178;21.176;2024-02-21T05:06:15;5.66;81.80
76897;SHT30;65856;52.178;21.176;2024-02-21T05:08:41;5.66;81.89
76897;SHT30;65856;52.178;21.176;2024-02-21T05:11:06;5.69;81.90
76897;SHT30;65856;52.178;21.176;2024-02-21T05:13:32;5.72;81.97
76897;SHT30;65856;52.178;21.176;2024-02-21T05:15:57;5.73;81.91
76897;SHT30;65856;52.178;21.176;2024-02-21T05:18:26;5.74;81.96
76897;SHT30;65856;52.178;21.176;2024-02-21T05:20:52;5.74;82.03
76897;SHT30;65856;52.178;21.176;2024-02-21T05:23:17;5.70;82.11
76897;SHT30;65856;52.178;21.176;2024-02-21T05:25:43;5.68;82.28
76897;SHT30;65856;52.178;21.176;2024-02-21T05:28:08;5.70;82.41
76897;SHT30;65856;52.178;21.176;2024-02-21T05:30:34;5.73;82.47
76897;SHT30;65856;52.178;21.176;2024-02-21T05:33:03;5.76;82.61
76897;SHT30;65856;52.178;21.176;2024-02-21T05:35:32;5.78;82.82
76897;SHT30;65856;52.178;21.176;2024-02-21T05:37:57;5.82;82.96
76897;SHT30;65856;52.178;21.176;2024-02-21T05:40:24;5.85;83.01
76897;SHT30;65856;52.178;21.176;2024-02-21T05:42:50;5.88;83.09
76897;SHT30;65856;52.178;21.176;2024-02-21T05:45:17;5.92;83.16
76897;SHT30;65856;52.178;21.176;2024-02-21T05:47:43;5.95;83.24
76897;SHT30;65856;52.178;21.176;2024-02-21T05:50:09;5.99;83.30
76897;SHT30;65856;52.178;21.176;2024-02-21T05:52:35;6.02;83.31
76897;SHT30;65856;52.178;21.176;2024-02-21T05:55:01;6.04;83.33
76897;SHT30;65856;52.178;21.176;2024-02-21T05:57:26;6.07;83.36
76897;SHT30;65856;52.178;21.176;2024-02-21T05:59:51;6.09;83.39
76897;SHT30;65856;52.178;21.176;2024-02-21T06:02:17;6.14;83.40
76897;SHT30;65856;52.178;21.176;2024-02-21T06:04:42;6.15;83.41
76897;SHT30;65856;52.178;21.176;2024-02-21T06:07:09;6.19;83.45
76897;SHT30;65856;52.178;21.176;2024-02-21T06:09:34;6.22;83.40
76897;SHT30;65856;52.178;21.176;2024-02-21T06:12:00;6.23;83.42
76897;SHT30;65856;52.178;21.176;2024-02-21T06:14:25;6.25;83.49
76897;SHT30;65856;52.178;21.176;2024-02-21T06:16:51;6.27;83.50
76897;SHT30;65856;52.178;21.176;2024-02-21T06:19:16;6.30;83.45
76897;SHT30;65856;52.178;21.176;2024-02-21T06:21:42;6.29;83.41
76897;SHT30;65856;52.178;21.176;2024-02-21T06:24:07;6.29;83.48
76897;SHT30;65856;52.178;21.176;2024-02-21T06:26:32;6.30;83.49
76897;SHT30;65856;52.178;21.176;2024-02-21T06:28:58;6.34;83.50
76897;SHT30;65856;52.178;21.176;2024-02-21T06:31:24;6.39;83.52
76897;SHT30;65856;52.178;21.176;2024-02-21T06:33:50;6.50;83.55
76897;SHT30;65856;52.178;21.176;2024-02-21T06:36:16;6.57;83.42
76897;SHT30;65856;52.178;21.176;2024-02-21T06:38:42;6.59;83.40
76897;SHT30;65856;52.178;21.176;2024-02-21T06:41:14;6.61;83.39
76897;SHT30;65856;52.178;21.176;2024-02-21T06:43:41;6.62;83.40
76897;SHT30;65856;52.178;21.176;2024-02-21T06:46:06;6.63;83.51
76897;SHT30;65856;52.178;21.176;2024-02-21T06:48:32;6.68;83.54
76897;SHT30;65856;52.178;21.176;2024-02-21T06:50:57;6.70;83.49
76897;SHT30;65856;52.178;21.176;2024-02-21T06:53:22;6.73;83.41
76897;SHT30;65856;52.178;21.176;2024-02-21T06:55:48;6.74;83.45
76897;SHT30;65856;52.178;21.176;2024-02-21T06:58:13;6.77;83.51
76897;SHT30;65856;52.178;21.176;2024-02-21T07:00:42;6.82;83.53
76897;SHT30;65856;52.178;21.176;2024-02-21T07:03:08;6.91;83.49
76897;SHT30;65856;52.178;21.176;2024-02-21T07:05:33;7.06;83.34
76897;SHT30;65856;52.178;21.176;2024-02-21T07:07:59;7.24;83.09
76897;SHT30;65856;52.178;21.176;2024-02-21T07:10:24;7.39;82.79
76897;SHT30;65856;52.178;21.176;2024-02-21T07:12:50;7.50;82.57
76897;SHT30;65856;52.178;21.176;2024-02-21T07:15:17;7.55;82.39
76897;SHT30;65856;52.178;21.176;2024-02-21T07:17:42;7.58;82.24
76897;SHT30;65856;52.178;21.176;2024-02-21T07:20:08;7.64;82.18
76897;SHT30;65856;52.178;21.176;2024-02-21T07:22:33;7.65;82.10
76897;SHT30;65856;52.178;21.176;2024-02-21T07:24:59;7.62;82.00
76897;SHT30;65856;52.178;21.176;2024-02-21T07:27:24;7.61;82.07
76897;SHT30;65856;52.178;21.176;2024-02-21T07:29:53;7.60;82.09
76897;SHT30;65856;52.178;21.176;2024-02-21T07:32:19;7.60;82.10
76897;SHT30;65856;52.178;21.176;2024-02-21T07:34:44;7.62;82.10
76897;SHT30;65856;52.178;21.176;2024-02-21T07:37:10;7.64;82.12
76897;SHT30;65856;52.178;21.176;2024-02-21T07:39:35;7.66;82.03
76897;SHT30;65856;52.178;21.176;2024-02-21T07:42:02;7.67;82.00
76897;SHT30;65856;52.178;21.176;2024-02-21T07:44:28;7.68;82.06
76897;SHT30;65856;52.178;21.176;2024-02-21T07:46:53;7.70;82.10
76897;SHT30;65856;52.178;21.176;2024-02-21T07:49:19;7.72;82.10
76897;SHT30;65856;52.178;21.176;2024-02-21T07:51:44;7.75;82.10
76897;SHT30;65856;52.178;21.176;2024-02-21T07:54:09;7.77;82.11
76897;SHT30;65856;52.178;21.176;2024-02-21T07:56:35;7.80;82.08
76897;SHT30;65856;52.178;21.176;2024-02-21T07:59:00;7.80;82.01
76897;SHT30;65856;52.178;21.176;2024-02-21T08:01:26;7.81;82.00
76897;SHT30;65856;52.178;21.176;2024-02-21T08:03:51;7.83;81.93
76897;SHT30;65856;52.178;21.176;2024-02-21T08:06:17;7.84;81.91
76897;SHT30;65856;52.178;21.176;2024-02-21T08:08:42;7.85;81.90
76897;SHT30;65856;52.178;21.176;2024-02-21T08:11:07;7.87;81.92
76897;SHT30;65856;52.178;21.176;2024-02-21T08:13:33;7.87;81.91
76897;SHT30;65856;52.178;21.176;2024-02-21T08:15:58;7.88;81.90
76897;SHT30;65856;52.178;21.176;2024-02-21T08:18:24;7.89;81.91
76897;SHT30;65856;52.178;21.176;2024-02-21T08:20:49;7.91;81.87
76897;SHT30;65856;52.178;21.176;2024-02-21T08:23:18;7.93;81.87
76897;SHT30;65856;52.178;21.176;2024-02-21T08:25:44;7.99;81.93
76897;SHT30;65856;52.178;21.176;2024-02-21T08:28:09;8.06;81.89
76897;SHT30;65856;52.178;21.176;2024-02-21T08:30:35;8.13;81.84
76897;SHT30;65856;52.178;21.176;2024-02-21T08:33:00;8.22;81.90
76897;SHT30;65856;52.178;21.176;2024-02-21T08:35:26;8.28;81.64
76897;SHT30;65856;52.178;21.176;2024-02-21T08:37:51;8.34;81.55
76897;SHT30;65856;52.178;21.176;2024-02-21T08:40:17;8.43;81.57
76897;SHT30;65856;52.178;21.176;2024-02-21T08:42:46;8.52;81.33
76897;SHT30;65856;52.178;21.176;2024-02-21T08:45:12;8.65;81.24
76897;SHT30;65856;52.178;21.176;2024-02-21T08:47:41;8.76;81.20
76897;SHT30;65856;52.178;21.176;2024-02-21T08:50:07;8.83;81.07
76897;SHT30;65856;52.178;21.176;2024-02-21T08:52:36;8.84;80.64
76897;SHT30;65856;52.178;21.176;2024-02-21T08:55:02;8.87;80.60
76897;SHT30;65856;52.178;21.176;2024-02-21T08:57:28;8.89;80.47
76897;SHT30;65856;52.178;21.176;2024-02-21T08:59:53;8.93;80.49
76897;SHT30;65856;52.178;21.176;2024-02-21T09:02:19;8.96;80.24
76897;SHT30;65856;52.178;21.176;2024-02-21T09:04:44;8.94;80.12
76897;SHT30;65856;52.178;21.176;2024-02-21T09:07:10;8.92;79.99
76897;SHT30;65856;52.178;21.176;2024-02-21T09:09:36;8.90;79.97
76897;SHT30;65856;52.178;21.176;2024-02-21T09:12:03;8.90;79.99
76897;SHT30;65856;52.178;21.176;2024-02-21T09:14:32;8.91;79.93
76897;SHT30;65856;52.178;21.176;2024-02-21T09:16:58;8.90;79.77
76897;SHT30;65856;52.178;21.176;2024-02-21T09:19:23;8.88;79.73
76897;SHT30;65856;52.178;21.176;2024-02-21T09:21:49;8.91;79.87
76897;SHT30;65856;52.178;21.176;2024-02-21T09:24:14;8.96;79.85
76897;SHT30;65856;52.178;21.176;2024-02-21T09:26:40;9.00;79.79
76897;SHT30;65856;52.178;21.176;2024-02-21T09:29:05;9.05;79.79
76897;SHT30;65856;52.178;21.176;2024-02-21T09:31:31;9.07;79.58
76897;SHT30;65856;52.178;21.176;2024-02-21T09:33:57;9.09;79.49
76897;SHT30;65856;52.178;21.176;2024-02-21T09:36:22;9.09;79.33
76897;SHT30;65856;52.178;21.176;2024-02-21T09:38:48;9.07;79.12
76897;SHT30;65856;52.178;21.176;2024-02-21T09:41:17;9.05;79.05
76897;SHT30;65856;52.178;21.176;2024-02-21T09:43:44;9.02;79.03
76897;SHT30;65856;52.178;21.176;2024-02-21T09:46:17;9.00;79.15
76897;SHT30;65856;52.178;21.176;2024-02-21T09:48:58;9.00;79.16
76897;SHT30;65856;52.178;21.176;2024-02-21T09:51:35;9.01;79.31
76897;SHT30;65856;52.178;21.176;2024-02-21T09:54:02;9.03;79.29
76897;SHT30;65856;52.178;21.176;2024-02-21T09:56:28;9.06;79.35
76897;SHT30;65856;52.178;21.176;2024-02-21T09:58:54;9.06;79.07
76897;SHT30;65856;52.178;21.176;2024-02-21T10:01:20;9.05;78.92
76897;SHT30;65856;52.178;21.176;2024-02-21T10:03:45;9.05;79.05
76897;SHT30;65856;52.178;21.176;2024-02-21T10:06:11;9.08;79.18
76897;SHT30;65856;52.178;21.176;2024-02-21T10:08:36;9.08;79.26
76897;SHT30;65856;52.178;21.176;2024-02-21T10:11:02;9.08;79.16
76897;SHT30;65856;52.178;21.176;2024-02-21T10:13:29;9.09;79.33
76897;SHT30;65856;52.178;21.176;2024-02-21T10:16:04;9.10;79.24
76897;SHT30;65856;52.178;21.176;2024-02-21T10:18:32;9.11;79.23
76897;SHT30;65856;52.178;21.176;2024-02-21T10:23:27;9.16;79.28
76897;SHT30;65856;52.178;21.176;2024-02-21T10:25:52;9.19;79.16
76897;SHT30;65856;52.178;21.176;2024-02-21T10:28:17;9.19;79.02
76897;SHT30;65856;52.178;21.176;2024-02-21T10:30:51;9.21;78.91
76897;SHT30;65856;52.178;21.176;2024-02-21T10:33:17;9.23;79.09
76897;SHT30;65856;52.178;21.176;2024-02-21T10:35:47;9.26;78.94
76897;SHT30;65856;52.178;21.176;2024-02-21T10:38:14;9.27;78.73
76897;SHT30;65856;52.178;21.176;2024-02-21T10:40:40;9.30;78.46
76897;SHT30;65856;52.178;21.176;2024-02-21T10:43:05;9.30;78.46
76897;SHT30;65856;52.178;21.176;2024-02-21T10:45:38;9.33;78.46
76897;SHT30;65856;52.178;21.176;2024-02-21T10:48:15;9.34;78.58
76897;SHT30;65856;52.178;21.176;2024-02-21T10:53:35;9.44;78.36
76897;SHT30;65856;52.178;21.176;2024-02-21T10:56:16;9.45;78.36
76897;SHT30;65856;52.178;21.176;2024-02-21T10:59:05;9.44;78.32
76897;SHT30;65856;52.178;21.176;2024-02-21T11:01:32;9.41;78.41
76897;SHT30;65856;52.178;21.176;2024-02-21T11:03:59;9.40;78.61
76897;SHT30;65856;52.178;21.176;2024-02-21T11:06:31;9.37;78.68
76897;SHT30;65856;52.178;21.176;2024-02-21T11:09:08;9.37;78.91
76897;SHT30;65856;52.178;21.176;2024-02-21T11:11:38;9.37;79.00
76897;SHT30;65856;52.178;21.176;2024-02-21T11:14:09;9.39;79.10
76897;SHT30;65856;52.178;21.176;2024-02-21T11:16:45;9.41;79.20
76897;SHT30;65856;52.178;21.176;2024-02-21T11:21:54;9.44;79.17
76897;SHT30;65856;52.178;21.176;2024-02-21T11:24:25;9.45;79.13
76897;SHT30;65856;52.178;21.176;2024-02-21T11:27:08;9.46;79.12
76897;SHT30;65856;52.178;21.176;2024-02-21T11:29:55;9.47;79.20
76897;SHT30;65856;52.178;21.176;2024-02-21T11:32:22;9.47;79.24
76897;SHT30;65856;52.178;21.176;2024-02-21T11:37:21;9.43;79.14
76897;SHT30;65856;52.178;21.176;2024-02-21T11:39:51;9.38;79.14
76897;SHT30;65856;52.178;21.176;2024-02-21T11:42:18;9.34;79.38
76897;SHT30;65856;52.178;21.176;2024-02-21T11:44:44;9.35;79.60
76897;SHT30;65856;52.178;21.176;2024-02-21T11:47:09;9.35;79.79
76897;SHT30;65856;52.178;21.176;2024-02-21T11:49:44;9.37;80.06
76897;SHT30;65856;52.178;21.176;2024-02-21T11:52:11;9.38;80.22
76897;SHT30;65856;52.178;21.176;2024-02-21T11:54:40;9.37;80.31
76897;SHT30;65856;52.178;21.176;2024-02-21T11:57:06;9.34;80.36
76897;SHT30;65856;52.178;21.176;2024-02-21T11:59:32;9.31;80.32
76897;SHT30;65856;52.178;21.176;2024-02-21T12:01:59;9.29;80.47
76897;SHT30;65856;52.178;21.176;2024-02-21T12:04:25;9.31;80.58
76897;SHT30;65856;52.178;21.176;2024-02-21T12:06:52;9.32;80.76
76897;SHT30;65856;52.178;21.176;2024-02-21T12:09:19;9.30;80.73
76897;SHT30;65856;52.178;21.176;2024-02-21T12:11:45;9.30;80.80
76897;SHT30;65856;52.178;21.176;2024-02-21T12:14:15;9.30;80.90
76897;SHT30;65856;52.178;21.176;2024-02-21T12:16:41;9.28;80.98
76897;SHT30;65856;52.178;21.176;2024-02-21T12:19:09;9.27;81.07
76897;SHT30;65856;52.178;21.176;2024-02-21T12:21:35;9.25;81.10
76897;SHT30;65856;52.178;21.176;2024-02-21T12:24:12;9.21;81.18
76897;SHT30;65856;52.178;21.176;2024-02-21T12:26:39;9.20;81.31
76897;SHT30;65856;52.178;21.176;2024-02-21T12:29:05;9.19;81.42
76897;SHT30;65856;52.178;21.176;2024-02-21T12:31:31;9.14;81.42
76897;SHT30;65856;52.178;21.176;2024-02-21T12:33:56;9.11;81.52
76897;SHT30;65856;52.178;21.176;2024-02-21T12:36:22;9.09;81.58
76897;SHT30;65856;52.178;21.176;2024-02-21T12:38:47;9.07;81.69
76897;SHT30;65856;52.178;21.176;2024-02-21T12:41:14;9.04;81.80
76897;SHT30;65856;52.178;21.176;2024-02-21T12:43:40;9.02;81.89
76897;SHT30;65856;52.178;21.176;2024-02-21T12:46:06;9.01;82.03
76897;SHT30;65856;52.178;21.176;2024-02-21T12:48:32;9.00;82.19
76897;SHT30;65856;52.178;21.176;2024-02-21T12:50:59;8.98;82.27
76897;SHT30;65856;52.178;21.176;2024-02-21T12:53:24;8.98;82.35
76897;SHT30;65856;52.178;21.176;2024-02-21T12:55:50;8.97;82.36
76897;SHT30;65856;52.178;21.176;2024-02-21T12:58:16;8.99;82.45
76897;SHT30;65856;52.178;21.176;2024-02-21T13:00:42;8.98;82.41
76897;SHT30;65856;52.178;21.176;2024-02-21T13:03:08;9.00;82.47
76897;SHT30;65856;52.178;21.176;2024-02-21T13:05:37;8.99;82.51
76897;SHT30;65856;52.178;21.176;2024-02-21T13:08:04;8.97;82.60
76897;SHT30;65856;52.178;21.176;2024-02-21T13:10:31;8.97;82.60
76897;SHT30;65856;52.178;21.176;2024-02-21T13:12:58;8.96;82.69
76897;SHT30;65856;52.178;21.176;2024-02-21T13:15:24;8.96;82.71
76897;SHT30;65856;52.178;21.176;2024-02-21T13:17:49;8.98;82.82
76897;SHT30;65856;52.178;21.176;2024-02-21T13:20:14;8.97;82.82
76897;SHT30;65856;52.178;21.176;2024-02-21T13:22:40;8.93;82.80
76897;SHT30;65856;52.178;21.176;2024-02-21T13:25:06;8.92;82.89
76897;SHT30;65856;52.178;21.176;2024-02-21T13:27:32;8.93;82.90
76897;SHT30;65856;52.178;21.176;2024-02-21T13:29:58;8.92;82.91
76897;SHT30;65856;52.178;21.176;2024-02-21T13:32:26;8.91;83.01
76897;SHT30;65856;52.178;21.176;2024-02-21T13:34:51;8.88;83.08
76897;SHT30;65856;52.178;21.176;2024-02-21T13:37:17;8.89;83.10
76897;SHT30;65856;52.178;21.176;2024-02-21T13:39:43;8.90;83.17
76897;SHT30;65856;52.178;21.176;2024-02-21T13:42:09;8.88;83.16
76897;SHT30;65856;52.178;21.176;2024-02-21T13:44:34;8.89;83.20
76897;SHT30;65856;52.178;21.176;2024-02-21T13:47:01;8.88;83.24
76897;SHT30;65856;52.178;21.176;2024-02-21T13:49:27;8.89;83.30
76897;SHT30;65856;52.178;21.176;2024-02-21T13:51:53;8.87;83.31
76897;SHT30;65856;52.178;21.176;2024-02-21T13:54:19;8.83;83.34
76897;SHT30;65856;52.178;21.176;2024-02-21T13:56:45;8.80;83.41
76897;SHT30;65856;52.178;21.176;2024-02-21T13:59:11;8.78;83.47
76897;SHT30;65856;52.178;21.176;2024-02-21T14:01:38;8.77;83.57
76897;SHT30;65856;52.178;21.176;2024-02-21T14:04:04;8.75;83.61
76897;SHT30;65856;52.178;21.176;2024-02-21T14:06:29;8.74;83.64
76897;SHT30;65856;52.178;21.176;2024-02-21T14:08:55;8.71;83.71
76897;SHT30;65856;52.178;21.176;2024-02-21T14:11:21;8.67;83.81
76897;SHT30;65856;52.178;21.176;2024-02-21T14:13:46;8.63;83.80
76897;SHT30;65856;52.178;21.176;2024-02-21T14:16:11;8.61;83.89
76897;SHT30;65856;52.178;21.176;2024-02-21T14:18:38;8.60;83.99
76897;SHT30;65856;52.178;21.176;2024-02-21T14:21:07;8.60;84.00
76897;SHT30;65856;52.178;21.176;2024-02-21T14:23:35;8.62;84.05
76897;SHT30;65856;52.178;21.176;2024-02-21T14:26:02;8.63;84.10
76897;SHT30;65856;52.178;21.176;2024-02-21T14:28:28;8.64;84.17
76897;SHT30;65856;52.178;21.176;2024-02-21T14:30:54;8.64;84.23
76897;SHT30;65856;52.178;21.176;2024-02-21T14:33:22;8.63;84.30
76897;SHT30;65856;52.178;21.176;2024-02-21T14:35:52;8.59;84.32
76897;SHT30;65856;52.178;21.176;2024-02-21T14:38:18;8.59;84.34
76897;SHT30;65856;52.178;21.176;2024-02-21T14:40:45;8.56;84.37
76897;SHT30;65856;52.178;21.176;2024-02-21T14:43:11;8.56;84.38
76897;SHT30;65856;52.178;21.176;2024-02-21T14:45:36;8.57;84.43
76897;SHT30;65856;52.178;21.176;2024-02-21T14:48:03;8.58;84.46
76897;SHT30;65856;52.178;21.176;2024-02-21T14:50:29;8.57;84.41
76897;SHT30;65856;52.178;21.176;2024-02-21T14:52:55;8.54;84.36
76897;SHT30;65856;52.178;21.176;2024-02-21T14:55:20;8.51;84.36
76897;SHT30;65856;52.178;21.176;2024-02-21T14:57:48;8.49;84.38
76897;SHT30;65856;52.178;21.176;2024-02-21T15:00:13;8.49;84.42
76897;SHT30;65856;52.178;21.176;2024-02-21T15:02:39;8.48;84.46
76897;SHT30;65856;52.178;21.176;2024-02-21T15:05:05;8.48;84.50
76897;SHT30;65856;52.178;21.176;2024-02-21T15:07:31;8.46;84.51
76897;SHT30;65856;52.178;21.176;2024-02-21T15:09:57;8.44;84.53
76897;SHT30;65856;52.178;21.176;2024-02-21T15:12:23;8.44;84.52
76897;SHT30;65856;52.178;21.176;2024-02-21T15:14:48;8.43;84.57
76897;SHT30;65856;52.178;21.176;2024-02-21T15:17:15;8.43;84.57
76897;SHT30;65856;52.178;21.176;2024-02-21T15:19:40;8.43;84.60
76897;SHT30;65856;52.178;21.176;2024-02-21T15:22:09;8.40;84.60
76897;SHT30;65856;52.178;21.176;2024-02-21T15:24:39;8.40;84.54
76897;SHT30;65856;52.178;21.176;2024-02-21T15:27:05;8.43;84.51
76897;SHT30;65856;52.178;21.176;2024-02-21T15:29:31;8.42;84.50
76897;SHT30;65856;52.178;21.176;2024-02-21T15:31:56;8.42;84.51
76897;SHT30;65856;52.178;21.176;2024-02-21T15:34:23;8.44;84.49
76897;SHT30;65856;52.178;21.176;2024-02-21T15:36:48;8.43;84.42